Time;durP1;ratioP1;P1;durP2;ratioP2;P2;SDS_P1;SDS_P2;PMS_P1;PMS_P2;Temp;Humidity;BMP_temperature;BMP_pressure;BME280_temperature;BME280_humidity;BME280_pressure;Samples;Min_cycle;Max_cycle;Signal;HPM_P1;HPM_P2
2023/01/02 00:00:41;;;;;;;;;5.50;5.50;;;;;14.30;71.99;100384.56;5036552;28;45384;-67
2023/01/02 00:03:07;;;;;;;;;6.25;6.25;;;;;14.29;71.90;100390.78;5036782;28;45452;-63
2023/01/02 00:05:34;;;;;;;;;6.00;6.00;;;;;14.27;72.01;100375.97;5035455;28;48480;-65
2023/01/02 00:07:59;;;;;;;;;6.50;6.25;;;;;14.21;72.20;100379.81;5018414;28;45326;-64
2023/01/02 00:10:24;;;;;;;;;6.00;6.00;;;;;14.25;72.21;100391.91;5036092;28;49127;-65
2023/01/02 00:12:50;;;;;;;;;6.00;6.00;;;;;14.20;72.46;100390.50;5036580;28;45479;-65
2023/01/02 00:15:15;;;;;;;;;5.75;5.75;;;;;14.22;72.36;100391.25;5018340;28;46897;-66
2023/01/02 00:17:40;;;;;;;;;5.00;5.00;;;;;14.21;72.40;100392.19;5036209;28;45259;-65
2023/01/02 00:20:06;;;;;;;;;5.75;5.75;;;;;14.20;72.59;100390.50;5036317;28;50584;-66
2023/01/02 00:22:32;;;;;;;;;7.00;6.75;;;;;14.18;72.53;100406.44;5036667;28;46173;-66
2023/01/02 00:24:57;;;;;;;;;4.75;4.25;;;;;14.07;72.93;100391.22;5036280;28;45999;-64
2023/01/02 00:27:22;;;;;;;;;5.00;5.00;;;;;14.15;73.13;100406.63;5035788;28;45285;-65
2023/01/02 00:29:48;;;;;;;;;5.00;5.00;;;;;14.12;73.08;100414.75;5036691;28;45323;-64
2023/01/02 00:32:14;;;;;;;;;4.50;4.50;;;;;14.09;73.41;100410.50;5018540;28;45379;-64
2023/01/02 00:34:39;;;;;;;;;4.00;4.00;;;;;14.10;73.53;100409.56;5036909;28;46322;-63
2023/01/02 00:37:04;;;;;;;;;5.50;5.50;;;;;14.06;74.16;100415.97;5036878;28;45365;-62
2023/01/02 00:39:30;;;;;;;;;5.00;5.00;;;;;14.01;74.21;100397.69;5037405;28;45420;-63
2023/01/02 00:41:56;;;;;;;;;6.75;6.75;;;;;13.95;74.64;100394.56;5037074;28;45330;-65
2023/01/02 00:44:21;;;;;;;;;6.50;6.50;;;;;13.93;75.17;100399.94;5034526;28;46238;-65
2023/01/02 00:46:46;;;;;;;;;5.50;5.50;;;;;13.91;75.08;100403.63;5035390;28;51681;-64
2023/01/02 00:49:12;;;;;;;;;3.25;3.25;;;;;13.86;75.06;100409.16;5035852;28;45288;-66
2023/01/02 00:51:37;;;;;;;;;6.50;6.25;;;;;13.84;75.62;100400.47;5034164;28;45377;-66
2023/01/02 00:54:02;;;;;;;;;5.00;5.00;;;;;13.77;75.81;100399.94;5034421;28;45939;-67
2023/01/02 00:56:28;;;;;;;;;5.25;5.25;;;;;13.77;75.95;100410.50;5035788;28;45336;-65
2023/01/02 00:58:53;;;;;;;;;5.50;5.50;;;;;13.69;76.23;100396.88;5035253;28;49749;-66
2023/01/02 01:01:18;;;;;;;;;8.25;8.25;;;;;13.74;76.77;100405.41;5035595;28;45804;-66
2023/01/02 01:03:45;;;;;;;;;10.75;10.75;;;;;13.71;76.79;100400.28;5035262;28;58970;-66
2023/01/02 01:06:13;;;;;;;;;13.50;13.50;;;;;13.67;76.99;100396.09;5036028;28;45412;-67
2023/01/02 01:08:39;;;;;;;;;16.00;15.25;;;;;13.63;77.08;100397.22;5037219;28;45329;-64
2023/01/02 01:11:11;;;;;;;;;18.00;18.00;;;;;13.66;77.96;100407.63;5038852;28;45634;-65
2023/01/02 01:13:37;;;;;;;;;13.00;12.00;;;;;13.62;77.68;100406.97;5037279;28;46243;-65
2023/01/02 01:16:05;;;;;;;;;19.00;19.00;;;;;13.61;77.94;100409.66;5036429;28;46001;-64
2023/01/02 01:18:30;;;;;;;;;13.00;13.00;;;;;13.47;78.05;100387.50;5035198;28;45406;-64
2023/01/02 01:20:55;;;;;;;;;12.00;11.00;;;;;13.52;78.22;100401.31;5036478;28;45359;-65
2023/01/02 01:23:22;;;;;;;;;8.00;8.00;;;;;13.55;78.27;100413.53;5035110;28;46021;-65
2023/01/02 01:25:48;;;;;;;;;7.25;7.25;;;;;13.51;78.36;100420.75;5036659;28;45439;-69
2023/01/02 01:28:13;;;;;;;;;7.50;6.75;;;;;13.50;78.71;100418.22;5035611;28;45696;-66
2023/01/02 01:30:38;;;;;;;;;5.00;5.00;;;;;13.48;78.89;100422.72;5036119;28;45378;-65
2023/01/02 01:33:04;;;;;;;;;5.00;5.00;;;;;13.42;79.03;100411.56;5035613;28;45392;-64
2023/01/02 01:35:29;;;;;;;;;7.75;7.75;;;;;13.48;79.03;100425.38;5033950;28;45400;-62
2023/01/02 01:37:54;;;;;;;;;3.25;3.25;;;;;13.45;78.90;100423.72;5033741;28;58718;-62
2023/01/02 01:40:20;;;;;;;;;4.00;4.00;;;;;13.41;79.13;100414.25;5035071;28;49719;-64
2023/01/02 01:42:45;;;;;;;;;3.75;3.75;;;;;13.40;79.54;100407.25;5035089;28;46024;-65
2023/01/02 01:45:14;;;;;;;;;3.00;3.00;;;;;13.37;80.09;100408.28;5035266;28;45435;-64
2023/01/02 01:47:50;;;;;;;;;4.25;4.25;;;;;13.35;80.36;100415.44;5017683;28;45483;-63
2023/01/02 01:50:34;;;;;;;;;5.50;5.50;;;;;13.33;80.51;100411.16;5035251;28;45555;-65
2023/01/02 01:53:02;;;;;;;;;3.00;3.00;;;;;13.29;80.35;100419.25;5035026;28;46523;-65
2023/01/02 01:55:33;;;;;;;;;2.00;2.00;;;;;13.25;80.89;100424.78;5034804;28;45463;-63
2023/01/02 01:58:12;;;;;;;;;3.25;3.25;;;;;13.24;80.37;100429.22;5017801;28;45423;-65
2023/01/02 02:00:40;;;;;;;;;5.00;5.00;;;;;13.17;80.23;100433.13;5035586;28;45420;-64
2023/01/02 02:03:13;;;;;;;;;3.50;3.50;;;;;13.20;80.31;100448.81;5034784;28;45332;-62
2023/01/02 02:05:41;;;;;;;;;3.00;3.00;;;;;13.24;80.65;100457.41;5017885;28;45375;-64
2023/01/02 02:08:17;;;;;;;;;4.75;4.75;;;;;13.23;80.75;100466.28;5035614;28;45313;-63
2023/01/02 02:10:43;;;;;;;;;3.00;3.00;;;;;13.18;81.02;100466.53;5035461;28;45373;-65
2023/01/02 02:13:09;;;;;;;;;3.00;3.00;;;;;13.22;81.44;100470.72;5035011;28;45233;-65
2023/01/02 02:16:05;;;;;;;;;3.00;3.00;;;;;13.19;81.28;100477.94;5034686;28;45593;-62
2023/01/02 02:18:44;;;;;;;;;3.50;3.50;;;;;13.21;81.55;100483.97;5036105;28;45382;-64
2023/01/02 02:21:47;;;;;;;;;4.00;4.00;;;;;13.19;81.77;100485.84;5036606;28;45208;-64
2023/01/02 02:24:37;;;;;;;;;3.00;3.00;;;;;13.20;81.81;100490.19;5035599;28;45437;-63
2023/01/02 02:27:30;;;;;;;;;2.50;2.50;;;;;13.19;82.00;100494.66;5039379;28;45328;-66
2023/01/02 02:30:21;;;;;;;;;3.00;3.00;;;;;13.18;81.99;100494.72;5019395;28;45190;-64
2023/01/02 02:33:02;;;;;;;;;4.00;4.00;;;;;13.19;82.30;100496.41;5038624;28;45455;-64
2023/01/02 02:35:52;;;;;;;;;4.00;4.00;;;;;13.17;82.58;100491.22;5041604;28;46545;-66
2023/01/02 02:38:44;;;;;;;;;2.00;2.00;;;;;13.14;82.84;100491.38;5035121;28;45460;-64
2023/01/02 02:41:17;;;;;;;;;2.00;2.00;;;;;13.14;82.96;100496.69;5035781;28;45261;-65
2023/01/02 02:43:59;;;;;;;;;2.00;2.00;;;;;13.10;83.46;100487.22;5037324;28;45304;-64
2023/01/02 02:46:40;;;;;;;;;2.50;2.50;;;;;13.05;83.38;100489.22;5036089;28;46446;-66
2023/01/02 02:49:23;;;;;;;;;3.50;3.50;;;;;13.06;84.02;100491.78;5034808;28;45506;-64
2023/01/02 02:52:05;;;;;;;;;3.25;3.25;;;;;13.04;84.26;100488.38;5038142;28;45231;-63
2023/01/02 02:54:39;;;;;;;;;2.00;2.00;;;;;13.02;84.66;100482.31;5038430;28;45362;-65
2023/01/02 02:57:06;;;;;;;;;1.00;1.00;;;;;13.00;85.02;100490.31;5019602;28;46739;-63
2023/01/02 02:59:34;;;;;;;;;3.00;3.00;;;;;12.95;85.09;100487.06;5037539;28;45329;-65
2023/01/02 03:02:00;;;;;;;;;2.75;2.75;;;;;12.90;85.42;100481.19;5037862;28;45316;-63
2023/01/02 03:04:25;;;;;;;;;2.50;2.50;;;;;12.93;85.49;100498.63;5040083;28;45385;-66
2023/01/02 03:07:01;;;;;;;;;2.75;2.75;;;;;12.89;85.74;100495.31;5038134;28;45451;-63
2023/01/02 03:09:44;;;;;;;;;2.25;2.25;;;;;12.88;85.97;100500.66;5037658;28;45718;-65
2023/01/02 03:12:12;;;;;;;;;2.50;2.50;;;;;12.86;86.10;100503.38;5037465;28;45235;-62
2023/01/02 03:15:08;;;;;;;;;2.00;2.00;;;;;12.86;86.27;100513.94;5037590;28;45554;-63
2023/01/02 03:17:49;;;;;;;;;2.50;2.50;;;;;12.83;86.36;100506.19;5037071;28;45483;-63
2023/01/02 03:20:18;;;;;;;;;2.50;2.50;;;;;12.80;86.30;100503.69;5037671;28;45254;-63
2023/01/02 03:22:52;;;;;;;;;1.75;1.75;;;;;12.76;86.56;100496.88;5037412;28;45474;-64
2023/01/02 03:25:19;;;;;;;;;1.25;1.25;;;;;12.67;86.11;100488.47;5037533;28;45301;-64
2023/01/02 03:27:49;;;;;;;;;1.00;1.00;;;;;12.67;85.76;100493.75;5019299;28;46380;-61
2023/01/02 03:30:18;;;;;;;;;1.00;1.00;;;;;12.66;85.37;100494.66;5019333;28;45249;-63
2023/01/02 03:32:56;;;;;;;;;0.25;0.25;;;;;12.63;85.06;100501.91;5037674;28;45424;-65
2023/01/02 03:35:35;;;;;;;;;0.00;0.00;;;;;12.47;84.53;100481.56;5037510;28;45278;-65
2023/01/02 03:38:04;;;;;;;;;0.00;0.00;;;;;12.53;84.31;100505.00;5036889;28;46173;-63
2023/01/02 03:40:38;;;;;;;;;0.00;0.00;;;;;12.50;84.11;100510.44;5037564;28;45560;-64
2023/01/02 03:43:28;;;;;;;;;0.00;0.00;;;;;12.48;84.00;100516.69;5039245;28;45429;-65
2023/01/02 03:46:34;;;;;;;;;0.00;0.00;;;;;12.44;83.72;100512.50;5039328;28;45410;-67
2023/01/02 03:49:05;;;;;;;;;0.00;0.00;;;;;12.42;83.41;100529.25;5037738;28;46243;-65
2023/01/02 03:51:31;;;;;;;;;0.00;0.00;;;;;12.40;83.41;100532.91;5036778;28;45195;-63
2023/01/02 03:53:58;;;;;;;;;0.00;0.00;;;;;12.40;83.24;100543.47;5037062;28;45197;-64
2023/01/02 03:56:51;;;;;;;;;0.00;0.00;;;;;12.38;83.25;100540.06;5036973;28;45283;-64
2023/01/02 03:59:19;;;;;;;;;0.00;0.00;;;;;12.38;83.04;100553.25;5019042;28;48288;-64
2023/01/02 04:02:06;;;;;;;;;0.00;0.00;;;;;12.35;83.33;100548.94;5018144;28;45328;-63
2023/01/02 04:04:46;;;;;;;;;0.00;0.00;;;;;12.32;83.50;100549.09;5036811;28;45250;-63
2023/01/02 04:07:33;;;;;;;;;0.00;0.00;;;;;12.29;83.49;100549.25;5036824;28;45677;-64
2023/01/02 04:10:00;;;;;;;;;0.00;0.00;;;;;12.26;83.81;100546.75;5036375;28;45442;-63
2023/01/02 04:12:28;;;;;;;;;0.00;0.00;;;;;12.25;83.61;100550.31;5036545;28;45384;-61
2023/01/02 04:15:06;;;;;;;;;0.00;0.00;;;;;12.23;84.01;100552.19;5036831;28;45443;-62
2023/01/02 04:17:39;;;;;;;;;0.00;0.00;;;;;12.20;83.82;100545.28;5036731;28;45349;-64
2023/01/02 04:20:09;;;;;;;;;0.00;0.00;;;;;12.11;84.07;100541.28;5036389;28;45437;-62
2023/01/02 04:22:41;;;;;;;;;0.00;0.00;;;;;12.17;84.43;100547.19;5036298;28;45445;-63
2023/01/02 04:25:13;;;;;;;;;0.00;0.00;;;;;12.12;84.42;100550.91;5037549;28;45522;-65
2023/01/02 04:27:46;;;;;;;;;0.00;0.00;;;;;12.08;84.79;100543.19;5036543;28;45459;-64
2023/01/02 04:30:11;;;;;;;;;0.00;0.00;;;;;12.11;84.62;100561.50;5018027;28;47600;-64
2023/01/02 04:32:40;;;;;;;;;0.00;0.00;;;;;12.11;84.62;100575.56;5036309;28;45317;-64
2023/01/02 04:35:21;;;;;;;;;0.00;0.00;;;;;12.09;84.39;100569.50;5036547;28;45859;-64
2023/01/02 04:37:47;;;;;;;;;0.00;0.00;;;;;12.05;84.14;100560.03;5036884;28;45400;-65
2023/01/02 04:40:20;;;;;;;;;0.00;0.00;;;;;12.05;84.71;100575.84;5035967;28;46218;-64
2023/01/02 04:42:46;;;;;;;;;0.00;0.00;;;;;12.05;84.87;100577.63;5036075;28;45389;-64
2023/01/02 04:45:11;;;;;;;;;0.00;0.00;;;;;12.04;84.82;100579.41;5036180;28;45435;-65
2023/01/02 04:47:37;;;;;;;;;0.00;0.00;;;;;12.00;84.48;100583.13;5036835;28;45577;-65
2023/01/02 04:50:04;;;;;;;;;0.00;0.00;;;;;11.95;84.86;100572.75;5036387;28;45412;-64
2023/01/02 04:52:29;;;;;;;;;0.00;0.00;;;;;11.89;85.12;100569.56;5040691;28;45603;-65
2023/01/02 04:54:54;;;;;;;;;0.00;0.00;;;;;11.97;84.83;100599.88;5037694;28;45262;-65
2023/01/02 04:57:20;;;;;;;;;0.00;0.00;;;;;11.99;85.12;100603.31;5036524;28;45187;-65
2023/01/02 04:59:45;;;;;;;;;0.00;0.00;;;;;11.99;85.26;100607.75;5035825;28;46278;-69
2023/01/02 05:02:10;;;;;;;;;0.00;0.00;;;;;11.92;85.24;100601.88;5036048;28;45307;-64
2023/01/02 05:04:36;;;;;;;;;0.00;0.00;;;;;11.95;85.56;100617.56;5035938;28;45274;-65
2023/01/02 05:07:01;;;;;;;;;0.00;0.00;;;;;11.89;86.08;100606.47;5036065;28;45217;-65
2023/01/02 05:09:27;;;;;;;;;0.00;0.00;;;;;11.90;86.27;100623.97;5035634;28;46359;-63
2023/01/02 05:11:52;;;;;;;;;0.00;0.00;;;;;11.89;86.34;100622.28;5036356;28;45227;-65
2023/01/02 05:14:17;;;;;;;;;0.00;0.00;;;;;11.87;86.29;100626.75;5034151;28;45236;-64
2023/01/02 05:16:43;;;;;;;;;0.00;0.00;;;;;11.78;86.80;100618.34;5035816;28;45947;-64
2023/01/02 05:19:08;;;;;;;;;0.00;0.00;;;;;11.82;86.41;100645.41;5035152;28;46395;-62
2023/01/02 05:24:17;;;;;;;;;0.00;0.00;;;;;11.78;86.54;100644.69;5035124;28;45285;-65
2023/01/02 05:26:42;;;;;;;;;0.00;0.00;;;;;11.76;86.67;100646.53;5034211;28;45640;-65
2023/01/02 05:29:08;;;;;;;;;0.00;0.00;;;;;11.76;86.54;100653.56;5017309;28;48400;-64
2023/01/02 05:31:33;;;;;;;;;0.00;0.00;;;;;11.76;86.99;100654.44;5035111;28;56747;-65
2023/01/02 05:33:58;;;;;;;;;0.00;0.00;;;;;11.75;87.06;100663.28;5035628;28;45249;-63
2023/01/02 05:36:25;;;;;;;;;0.00;0.00;;;;;11.76;87.14;100672.03;5035500;28;45371;-64
2023/01/02 05:38:51;;;;;;;;;0.00;0.00;;;;;11.77;87.15;100666.69;5035286;28;45407;-65
2023/01/02 05:41:18;;;;;;;;;0.00;0.00;;;;;11.76;87.08;100678.16;5034992;28;45845;-62
2023/01/02 05:43:43;;;;;;;;;0.00;0.00;;;;;11.77;87.16;100687.78;5017125;28;45367;-62
2023/01/02 05:46:11;;;;;;;;;1.00;1.00;;;;;11.78;87.20;100689.50;5035344;28;45507;-64
2023/01/02 05:48:37;;;;;;;;;0.00;0.00;;;;;11.80;87.05;100694.69;5034805;28;46180;-65
2023/01/02 05:51:03;;;;;;;;;0.00;0.00;;;;;11.76;86.89;100690.47;5017361;28;45250;-62
2023/01/02 05:53:29;;;;;;;;;0.00;0.00;;;;;11.70;86.96;100678.44;5035045;28;45280;-63
2023/01/02 05:56:01;;;;;;;;;25.25;25.25;;;;;11.71;87.62;100689.81;5035369;28;45552;-64
2023/01/02 05:58:30;;;;;;;;;0.00;0.00;;;;;11.75;87.72;100699.28;5018088;28;47478;-64
2023/01/02 06:01:01;;;;;;;;;0.00;0.00;;;;;11.73;87.59;100701.13;5034735;28;45443;-64
2023/01/02 06:03:26;;;;;;;;;0.00;0.00;;;;;11.72;87.55;100700.31;5034883;28;45228;-65
2023/01/02 06:05:51;;;;;;;;;0.00;0.00;;;;;11.69;87.25;100696.00;5035035;28;47940;-68
2023/01/02 06:08:17;;;;;;;;;0.00;0.00;;;;;11.66;88.11;100690.88;5034813;28;45577;-67
2023/01/02 06:10:49;;;;;;;;;0.00;0.00;;;;;11.66;88.10;100703.16;5034250;28;60901;-64
2023/01/02 06:13:14;;;;;;;;;2.75;2.75;;;;;11.66;88.29;100704.03;5034944;28;45397;-63
2023/01/02 06:15:39;;;;;;;;;0.00;0.00;;;;;11.68;88.19;100709.25;5035266;28;45514;-66
2023/01/02 06:18:05;;;;;;;;;0.00;0.00;;;;;11.70;87.84;100707.41;5034898;28;46110;-65
2023/01/02 06:20:30;;;;;;;;;0.00;0.00;;;;;11.67;88.09;100720.72;5019677;28;45270;-65
2023/01/02 06:22:55;;;;;;;;;0.00;0.00;;;;;11.67;88.03;100728.63;5035523;28;58672;-62
2023/01/02 06:25:21;;;;;;;;;1.00;1.00;;;;;11.62;87.45;100725.31;5037362;28;45475;-63
2023/01/02 06:27:46;;;;;;;;;1.00;1.00;;;;;11.62;88.05;100736.72;5036811;28;49648;-65
2023/01/02 06:30:12;;;;;;;;;0.00;0.00;;;;;11.63;87.77;100735.78;5038179;28;45238;-62
2023/01/02 06:32:37;;;;;;;;;0.00;0.00;;;;;11.58;87.70;100729.00;5038317;28;45226;-61
2023/01/02 06:35:02;;;;;;;;;0.00;0.00;;;;;11.61;87.86;100739.41;5020180;28;45634;-64
2023/01/02 06:37:28;;;;;;;;;0.75;0.75;;;;;11.61;87.92;100728.84;5038155;28;45451;-63
2023/01/02 06:39:53;;;;;;;;;0.00;0.00;;;;;11.61;87.84;100742.03;5038436;28;45304;-63
2023/01/02 06:42:18;;;;;;;;;0.00;0.00;;;;;11.61;88.06;100750.81;5038717;28;47706;-64
2023/01/02 06:44:44;;;;;;;;;5.00;5.00;;;;;11.63;88.19;100751.59;5038967;28;52338;-62
2023/01/02 06:47:09;;;;;;;;;0.50;0.50;;;;;11.63;88.28;100742.81;5037050;28;64360;-62
2023/01/02 06:49:34;;;;;;;;;0.00;0.00;;;;;11.65;87.89;100754.16;5037575;28;45368;-64
2023/01/02 06:52:00;;;;;;;;;0.00;0.00;;;;;11.64;88.00;100752.44;5037850;28;45524;-61
2023/01/02 06:54:25;;;;;;;;;0.00;0.00;;;;;11.66;88.24;100762.00;5037801;28;45305;-63
2023/01/02 06:56:50;;;;;;;;;0.50;0.50;;;;;11.65;87.80;100757.66;5037355;28;45299;-64
2023/01/02 06:59:16;;;;;;;;;3.25;3.25;;;;;11.63;88.13;100751.59;5037402;28;45324;-65
2023/01/02 07:01:41;;;;;;;;;1.00;1.00;;;;;11.64;88.00;100749.81;5037988;28;45429;-63
2023/01/02 07:04:15;;;;;;;;;1.00;1.00;;;;;11.64;87.86;100749.81;5038500;28;45593;-62
2023/01/02 07:06:41;;;;;;;;;0.25;0.25;;;;;11.65;87.81;100738.34;5037472;28;46946;-63
2023/01/02 07:09:06;;;;;;;;;10.00;10.00;;;;;11.64;86.85;100732.22;5038050;28;45323;-64
2023/01/02 07:11:31;;;;;;;;;0.50;0.50;;;;;11.64;87.17;100740.13;5037046;28;47098;-63
2023/01/02 07:13:57;;;;;;;;;5.00;5.00;;;;;11.65;87.23;100757.66;5019227;28;45304;-66
2023/01/02 07:16:23;;;;;;;;;7.00;7.00;;;;;11.59;87.05;100738.59;5037346;28;45363;-66
2023/01/02 07:18:51;;;;;;;;;30.00;30.00;;;;;11.65;87.00;100752.38;5037004;28;45386;-66
2023/01/02 07:21:19;;;;;;;;;4.25;4.25;;;;;11.66;87.12;100756.75;5036998;28;45218;-64
2023/01/02 07:23:45;;;;;;;;;1.00;1.00;;;;;11.66;87.34;100767.28;5036960;28;45211;-63
2023/01/02 07:26:11;;;;;;;;;1.00;1.00;;;;;11.66;86.46;100769.03;5036485;28;52239;-64
2023/01/02 07:28:37;;;;;;;;;4.75;4.75;;;;;11.66;86.76;100769.03;5037473;28;45252;-66
2023/01/02 07:31:05;;;;;;;;;2.00;2.00;;;;;11.68;87.19;100775.97;5038423;28;45379;-64
2023/01/02 07:33:31;;;;;;;;;0.75;0.75;;;;;11.69;87.13;100774.22;5036899;28;45317;-66
2023/01/02 07:36:02;;;;;;;;;2.50;2.50;;;;;11.73;86.37;100772.28;5035502;28;46522;-64
2023/01/02 07:38:28;;;;;;;;;1.25;1.25;;;;;11.72;86.59;100762.66;5037014;28;45451;-65
2023/01/02 07:40:53;;;;;;;;;1.75;1.75;;;;;11.73;86.06;100770.53;5036431;28;45307;-66
2023/01/02 07:43:20;;;;;;;;;2.00;2.00;;;;;11.71;85.65;100776.78;5036968;28;45324;-64
2023/01/02 07:45:45;;;;;;;;;1.00;1.00;;;;;11.64;85.72;100777.03;5036311;28;45554;-64
2023/01/02 07:48:11;;;;;;;;;1.00;1.00;;;;;11.62;86.14;100773.59;5036298;28;45235;-66
2023/01/02 07:50:36;;;;;;;;;0.25;0.25;;;;;11.66;86.01;100783.09;5036833;28;45278;-64
2023/01/02 07:53:01;;;;;;;;;0.00;0.00;;;;;11.63;86.00;100790.25;5036850;28;45416;-63
2023/01/02 07:55:27;;;;;;;;;1.25;1.25;;;;;11.60;85.81;100799.16;5036540;28;49915;-65
2023/01/02 07:57:52;;;;;;;;;0.00;0.00;;;;;11.60;86.00;100811.44;5036734;28;45293;-63
2023/01/02 08:00:18;;;;;;;;;1.00;1.00;;;;;11.60;85.64;100814.09;5036799;28;58937;-64
2023/01/02 08:02:43;;;;;;;;;1.00;1.00;;;;;11.54;86.34;100823.97;5037334;28;45589;-65
2023/01/02 08:05:09;;;;;;;;;0.50;0.50;;;;;11.55;86.19;100832.72;5036490;28;46674;-64
2023/01/02 08:07:35;;;;;;;;;1.00;1.00;;;;;11.50;85.98;100832.91;5036740;28;45644;-62
2023/01/02 08:10:00;;;;;;;;;1.00;1.00;;;;;11.49;85.53;100831.19;5037231;28;45356;-65
2023/01/02 08:12:26;;;;;;;;;2.50;2.50;;;;;11.54;85.52;100850.31;5036521;28;45683;-66
2023/01/02 08:14:52;;;;;;;;;1.00;1.00;;;;;11.54;85.80;100854.72;5036876;28;45355;-65
2023/01/02 08:17:17;;;;;;;;;1.50;1.50;;;;;11.53;85.92;100861.75;5037375;28;45288;-65
2023/01/02 08:19:43;;;;;;;;;1.00;1.00;;;;;11.52;86.13;100853.94;5037547;28;45360;-65
2023/01/02 08:22:08;;;;;;;;;0.00;0.00;;;;;11.53;85.28;100859.13;5037763;28;45276;-67
2023/01/02 08:24:33;;;;;;;;;1.00;1.00;;;;;11.55;84.91;100864.34;5036406;28;45395;-62
2023/01/02 08:26:58;;;;;;;;;1.00;1.00;;;;;11.50;85.23;100856.63;5036282;28;45414;-65
2023/01/02 08:29:24;;;;;;;;;1.50;1.50;;;;;11.15;85.33;100800.94;5035755;28;45393;-69
2023/01/02 08:31:49;;;;;;;;;3.25;3.25;;;;;11.58;84.92;100879.16;5036735;28;45288;-65
2023/01/02 08:34:16;;;;;;;;;1.00;1.00;;;;;11.32;84.87;100845.03;5034602;28;48655;-65
2023/01/02 08:36:42;;;;;;;;;1.00;1.00;;;;;11.51;84.47;100881.19;5018711;28;45989;-65
2023/01/02 08:39:07;;;;;;;;;0.50;0.50;;;;;11.51;85.16;100874.13;5036651;28;45194;-64
2023/01/02 08:41:35;;;;;;;;;0.00;0.00;;;;;11.54;84.96;100876.66;5036854;28;45182;-63
2023/01/02 08:44:01;;;;;;;;;1.75;1.75;;;;;11.55;84.82;100886.25;5036931;28;46288;-64
2023/01/02 08:46:27;;;;;;;;;1.75;1.75;;;;;11.57;84.60;100887.97;5035861;28;45323;-64
2023/01/02 08:48:53;;;;;;;;;2.00;2.00;;;;;11.58;85.03;100906.38;5035383;28;45374;-67
2023/01/02 08:51:19;;;;;;;;;0.75;0.75;;;;;11.58;84.44;100906.38;5035860;28;45518;-65
2023/01/02 08:53:44;;;;;;;;;1.00;1.00;;;;;11.55;84.04;100919.69;5035363;28;46097;-66
2023/01/02 08:56:28;;;;;;;;;0.25;0.25;;;;;11.56;83.60;100937.19;5035424;28;55301;-66
2023/01/02 08:58:54;;;;;;;;;1.00;1.00;;;;;11.52;83.68;100944.34;5035795;28;45427;-65
2023/01/02 09:01:22;;;;;;;;;1.00;1.00;;;;;11.54;83.53;100955.69;5018281;28;45342;-65
2023/01/02 09:03:47;;;;;;;;;0.00;0.00;;;;;11.53;83.08;100961.88;5036285;28;46110;-64
2023/01/02 09:06:12;;;;;;;;;1.50;1.50;;;;;11.49;82.73;100983.97;5033323;28;45482;-62
2023/01/02 09:08:38;;;;;;;;;1.00;1.00;;;;;11.46;82.41;100993.78;5034434;28;45699;-66
2023/01/02 09:11:16;;;;;;;;;1.00;1.00;;;;;11.45;82.70;101000.81;5036043;28;45274;-66
2023/01/02 09:13:42;;;;;;;;;1.00;1.00;;;;;11.43;82.50;101005.28;5017517;28;47395;-66
2023/01/02 09:16:08;;;;;;;;;0.25;0.25;;;;;11.42;82.85;100997.44;5035346;28;45293;-65
2023/01/02 09:18:35;;;;;;;;;8.75;8.75;;;;;11.42;82.87;100994.81;5017538;28;45379;-65
2023/01/02 09:21:01;;;;;;;;;1.00;1.00;;;;;11.40;82.47;100993.09;5035296;28;45192;-64
2023/01/02 09:23:27;;;;;;;;;0.50;0.50;;;;;11.38;82.52;100980.88;5034869;28;45432;-68
2023/01/02 09:25:59;;;;;;;;;0.25;0.25;;;;;11.27;82.79;100951.47;5035306;28;45325;-65
2023/01/02 09:28:26;;;;;;;;;1.00;1.00;;;;;11.32;82.58;100965.31;5017897;28;45400;-64
2023/01/02 09:30:52;;;;;;;;;3.00;3.00;;;;;11.42;83.29;100993.03;5017961;28;45280;-67
2023/01/02 09:33:17;;;;;;;;;1.75;1.75;;;;;11.43;82.60;100997.38;5017363;28;48592;-65
2023/01/02 09:35:42;;;;;;;;;1.25;1.25;;;;;11.40;82.96;101006.28;5036429;28;45263;-66
2023/01/02 09:38:08;;;;;;;;;1.00;1.00;;;;;11.41;82.77;101017.66;5017028;28;46412;-67
2023/01/02 09:40:35;;;;;;;;;2.25;2.25;;;;;11.43;83.15;101029.00;5035882;28;45197;-64
2023/01/02 09:43:01;;;;;;;;;1.50;1.50;;;;;11.45;82.94;101028.94;5034690;28;46320;-67
2023/01/02 09:45:28;;;;;;;;;1.00;1.00;;;;;11.42;83.17;101027.28;5034765;28;45952;-67
2023/01/02 09:47:58;;;;;;;;;3.00;3.00;;;;;11.37;83.29;101014.28;5035037;28;45300;-67
2023/01/02 09:50:29;;;;;;;;;2.00;2.00;;;;;11.38;82.99;101017.75;5017498;28;45253;-66
2023/01/02 09:52:59;;;;;;;;;2.00;2.00;;;;;11.40;83.19;101023.84;5034128;28;46472;-65
2023/01/02 09:55:38;;;;;;;;;1.75;1.75;;;;;11.48;83.21;101045.47;5016854;28;45276;-67
2023/01/02 09:58:42;;;;;;;;;2.00;2.00;;;;;11.47;83.19;101066.63;5016992;28;45471;-67
2023/01/02 10:01:33;;;;;;;;;1.00;1.00;;;;;11.47;82.73;101079.81;5034732;28;45309;-62
2023/01/02 10:04:23;;;;;;;;;1.00;1.00;;;;;11.45;82.65;101074.56;5034513;28;45664;-63
2023/01/02 10:07:06;;;;;;;;;1.00;1.00;;;;;11.45;82.20;101082.47;5034344;28;45349;-65
2023/01/02 10:09:44;;;;;;;;;1.75;1.75;;;;;11.44;82.85;101082.53;5016700;28;45549;-66
2023/01/02 10:12:16;;;;;;;;;2.00;2.00;;;;;11.42;82.69;101077.31;5035222;28;45472;-64
2023/01/02 10:14:55;;;;;;;;;1.75;1.75;;;;;11.40;82.79;101079.16;5034603;28;45422;-64
2023/01/02 10:17:23;;;;;;;;;2.00;2.00;;;;;11.40;83.47;101074.75;5034388;28;45341;-64
2023/01/02 10:19:57;;;;;;;;;1.00;1.00;;;;;11.37;83.46;101068.72;5034482;28;45320;-66
2023/01/02 10:22:41;;;;;;;;;1.00;1.00;;;;;11.40;82.96;101071.25;5034266;28;45224;-66
2023/01/02 10:25:32;;;;;;;;;1.00;1.00;;;;;11.39;83.23;101061.63;5034482;28;46906;-65
2023/01/02 10:28:22;;;;;;;;;1.50;1.50;;;;;11.29;83.57;101024.25;5034434;28;45339;-63
2023/01/02 10:30:53;;;;;;;;;2.00;2.00;;;;;11.38;83.49;101052.88;5034311;28;45352;-65
2023/01/02 10:33:29;;;;;;;;;2.25;2.25;;;;;11.42;83.86;101047.50;5034543;28;45360;-67
2023/01/02 10:35:58;;;;;;;;;5.25;5.25;;;;;11.40;84.08;101040.50;5035827;28;45427;-66
2023/01/02 10:38:33;;;;;;;;;5.00;5.00;;;;;11.47;84.30;101062.22;5016172;28;45389;-66
2023/01/02 10:40:58;;;;;;;;;2.00;2.00;;;;;11.44;84.28;101078.13;5034231;28;45356;-66
2023/01/02 10:43:25;;;;;;;;;1.00;1.00;;;;;11.47;83.80;101072.75;5034530;28;45206;-67
2023/01/02 10:45:50;;;;;;;;;1.75;1.75;;;;;11.27;82.78;101041.00;5034119;28;45473;-66
2023/01/02 10:48:19;;;;;;;;;2.00;2.00;;;;;11.49;82.84;101076.19;5033762;28;45383;-67
2023/01/02 10:50:49;;;;;;;;;2.75;2.75;;;;;11.48;83.20;101085.00;5034398;28;45324;-65
2023/01/02 10:53:23;;;;;;;;;5.25;5.25;;;;;11.51;82.90;101091.94;5034572;28;45544;-66
2023/01/02 10:55:49;;;;;;;;;3.00;3.00;;;;;11.48;83.21;101102.59;5033778;28;46278;-66
2023/01/02 10:58:19;;;;;;;;;3.00;3.00;;;;;11.54;82.60;101112.91;5033764;28;45317;-65
2023/01/02 11:00:44;;;;;;;;;2.50;2.50;;;;;11.52;82.97;101120.84;5015911;28;45427;-66
2023/01/02 11:03:21;;;;;;;;;5.75;5.75;;;;;11.44;82.81;101107.09;5016032;28;45650;-67
2023/01/02 11:05:55;;;;;;;;;6.00;6.00;;;;;11.54;82.55;101126.94;5034009;28;46089;-64
2023/01/02 11:08:32;;;;;;;;;7.00;7.00;;;;;11.33;82.38;101075.00;5033942;28;45300;-65
2023/01/02 11:11:00;;;;;;;;;8.00;8.00;;;;;11.57;82.85;101112.81;5017684;28;45334;-64
2023/01/02 11:13:32;;;;;;;;;7.25;6.75;;;;;11.63;82.17;101116.97;5037551;28;45380;-65
2023/01/02 11:16:03;;;;;;;;;3.00;3.00;;;;;11.61;81.51;101108.28;5037025;28;46037;-65
2023/01/02 11:18:33;;;;;;;;;3.25;3.25;;;;;11.60;80.96;101123.22;5037432;28;45350;-66
2023/01/02 11:21:05;;;;;;;;;4.50;4.50;;;;;11.64;81.28;101142.41;5038542;28;45300;-66
2023/01/02 11:23:35;;;;;;;;;4.75;4.75;;;;;11.66;81.21;101136.19;5037945;28;45324;-66
2023/01/02 11:26:03;;;;;;;;;3.25;3.25;;;;;11.71;81.31;101151.84;5019168;28;45670;-67
2023/01/02 11:28:33;;;;;;;;;4.00;4.00;;;;;11.75;80.81;101147.31;5037266;28;45431;-65
2023/01/02 11:31:03;;;;;;;;;3.25;3.25;;;;;11.79;80.50;101136.63;5037596;28;45383;-67
2023/01/02 11:33:31;;;;;;;;;4.75;4.75;;;;;11.84;80.00;101131.16;5037893;28;45522;-66
2023/01/02 11:36:16;;;;;;;;;3.00;3.00;;;;;11.86;79.93;101131.97;5037150;28;46166;-64
2023/01/02 11:38:45;;;;;;;;;3.50;3.50;;;;;11.89;80.11;101138.91;5037721;28;45329;-66